Portada
METAR-TAF:

METAR-TAF

Aeroports :

Harbin, Xina

latitud: 45-45N, longitud: 126-46E, altitud: 143 m

Observació

L'informe es va fer fa 58 minuts, a les 03:00 UTC
Vent 10 kt del Sud/Sud-Est, variant entre Est/Sud-Est i Sud
Temperatura 20°C
Humitat 37%
Pressió 1014 hPa
Visibilitat 10 km o més
sense núvols per sota de 1500 mi sense presència de cumulonimbus.

METAR: ZYHB 110300Z 16005MPS 120V190 CAVOK 20/05 Q1014 NOSIG

Hora: 11:58 (03:58 UTC)

Pronòstic

L'informe es va fer fa 6 hores i 57 minuts, a les 21:01 UTC
Pronòstic vàlid del 11 a les 00 UTC al 11 a les 24 UTC
Vent 12 kt del Sud
Visibilitat: 6000 m
Escasses núvols a una alçada de 3000 ft

TAF: ZYHB 102101Z 1100/1124 17006MPS 6000 FEW030 TX20/1106Z TN07/1121Z

Observacions i pronòstics meteorològics de més de 4000 aeroports (METAR i TAF).

Les estacions disponibles són els punts grocs i vermells al mapa.

Posi el ratolí al punt desitjat per veure el nom de l'estació.

Feu clic per veure les observacions i els pronòstics meteorològics.

Per canviar el mapa: feu clic els botons verds amb una creu de color negre per apropar; al botó verd amb un guió per allunyar la imatge; o en les fletxes verdes per a mapes adjacents.


METAR-TAF: